createdAt,value
2017-11-03T00:00:11.087Z,27.93
2017-11-03T00:02:37.114Z,28.43
2017-11-03T00:05:03.062Z,28.40
2017-11-03T00:07:29.756Z,26.07
2017-11-03T00:09:55.737Z,26.50
2017-11-03T00:12:21.687Z,23.47
2017-11-03T00:14:48.409Z,27.63
2017-11-03T00:17:14.391Z,29.83
2017-11-03T00:19:41.103Z,26.17
2017-11-03T00:22:07.128Z,28.10
2017-11-03T00:24:37.117Z,26.03
2017-11-03T00:27:03.065Z,25.10
2017-11-03T00:29:29.049Z,27.57
2017-11-03T00:31:55.041Z,27.00
2017-11-03T00:34:21.003Z,27.20
2017-11-03T00:36:47.067Z,23.57
2017-11-03T00:39:13.136Z,24.27
2017-11-03T00:41:39.161Z,30.97
2017-11-03T00:44:05.241Z,25.07
2017-11-03T00:46:31.259Z,24.50
2017-11-03T00:48:57.299Z,24.43
2017-11-03T00:51:24.113Z,32.53
2017-11-03T00:53:50.932Z,28.43
2017-11-03T00:56:16.957Z,23.97
2017-11-03T00:58:43.004Z,33.20
2017-11-03T01:01:09.814Z,28.40
2017-11-03T01:03:35.830Z,28.97
2017-11-03T01:06:01.912Z,29.27
2017-11-03T01:08:27.924Z,28.90
2017-11-03T01:10:53.960Z,24.93
2017-11-03T01:13:20.021Z,26.23
2017-11-03T01:15:46.124Z,29.33
2017-11-03T01:18:12.135Z,28.00
2017-11-03T01:20:38.935Z,27.73
2017-11-03T01:23:04.987Z,30.00
2017-11-03T01:25:31.750Z,28.80
2017-11-03T01:27:57.789Z,25.60
2017-11-03T01:30:23.860Z,26.27
2017-11-03T01:32:49.888Z,25.90
2017-11-03T01:35:15.927Z,25.23
2017-11-03T01:37:42.733Z,24.37
2017-11-03T01:40:08.779Z,29.90
2017-11-03T01:42:34.828Z,33.23
2017-11-03T01:45:00.832Z,27.73
2017-11-03T01:47:26.848Z,27.20
2017-11-03T01:49:52.916Z,28.10
2017-11-03T01:52:18.997Z,30.73
2017-11-03T01:54:45.057Z,28.67
2017-11-03T01:57:11.820Z,31.23
2017-11-03T01:59:37.860Z,31.00
2017-11-03T02:02:03.940Z,27.03
2017-11-03T02:04:30.007Z,30.30
2017-11-03T02:06:56.004Z,27.07
2017-11-03T02:09:22.816Z,27.80
2017-11-03T02:11:48.858Z,31.50
2017-11-03T02:14:14.896Z,29.70
2017-11-03T02:16:41.685Z,26.93
2017-11-03T02:19:07.793Z,29.40
2017-11-03T02:21:33.819Z,32.13
2017-11-03T02:24:00.602Z,31.10
2017-11-03T02:26:26.663Z,32.90
2017-11-03T02:28:52.705Z,30.80
2017-11-03T02:31:18.784Z,31.63
2017-11-03T02:33:44.872Z,30.43
2017-11-03T02:36:10.928Z,33.57
2017-11-03T02:38:36.953Z,34.87
2017-11-03T02:41:03.033Z,33.67
2017-11-03T02:43:29.074Z,32.67
2017-11-03T02:45:55.137Z,33.10
2017-11-03T02:48:21.159Z,35.73
2017-11-03T02:50:47.193Z,35.20
2017-11-03T02:53:13.277Z,32.80
2017-11-03T02:55:40.132Z,31.67
2017-11-03T02:58:06.232Z,34.50
2017-11-03T03:00:32.267Z,36.27
2017-11-03T03:02:58.317Z,30.03
2017-11-03T03:05:24.401Z,32.70
2017-11-03T03:07:50.406Z,35.20
2017-11-03T03:10:17.170Z,31.57
2017-11-03T03:12:43.196Z,33.90
2017-11-03T03:15:09.236Z,29.90
2017-11-03T03:17:35.262Z,32.50
2017-11-03T03:20:01.320Z,32.73
2017-11-03T03:22:27.331Z,29.50
2017-11-03T03:24:53.382Z,33.10
2017-11-03T03:27:20.126Z,33.27
2017-11-03T03:29:46.958Z,32.33
2017-11-03T03:32:13.025Z,34.63
2017-11-03T03:34:39.043Z,33.93
2017-11-03T03:37:05.135Z,35.60
2017-11-03T03:39:31.167Z,37.20
2017-11-03T03:41:57.216Z,33.60
2017-11-03T03:44:23.260Z,33.57
2017-11-03T03:46:49.297Z,34.13
2017-11-03T03:49:15.342Z,29.70
2017-11-03T03:51:41.368Z,36.33
2017-11-03T03:54:07.396Z,32.50
2017-11-03T03:56:33.456Z,32.00
2017-11-03T03:58:59.486Z,32.23
2017-11-03T04:01:25.551Z,37.00
2017-11-03T04:03:51.564Z,38.80
2017-11-03T04:06:17.632Z,36.37
2017-11-03T04:08:43.646Z,37.27
2017-11-03T04:11:09.684Z,33.23
2017-11-03T04:13:35.715Z,34.40
2017-11-03T04:16:01.751Z,38.93
2017-11-03T04:18:28.584Z,32.73
2017-11-03T04:20:55.371Z,39.57
2017-11-03T04:23:21.411Z,40.37
2017-11-03T04:25:47.455Z,35.00
2017-11-03T04:28:13.537Z,36.53
2017-11-03T04:30:39.561Z,34.93
2017-11-03T04:33:05.611Z,28.40
2017-11-03T04:35:31.679Z,30.37
2017-11-03T04:37:58.490Z,36.93
2017-11-03T04:40:24.529Z,35.17
2017-11-03T04:42:50.602Z,39.27
2017-11-03T04:45:16.639Z,35.60
2017-11-03T04:47:42.690Z,35.47
2017-11-03T04:50:08.761Z,29.13
2017-11-03T04:52:34.804Z,36.10
2017-11-03T04:55:00.870Z,36.50
2017-11-03T04:57:26.956Z,38.23
2017-11-03T04:59:53.779Z,33.50
2017-11-03T05:02:19.801Z,41.13
2017-11-03T05:04:46.556Z,38.53
2017-11-03T05:07:12.624Z,38.73
2017-11-03T05:09:38.729Z,34.57
2017-11-03T05:12:04.753Z,35.27
2017-11-03T05:14:30.796Z,35.00
2017-11-03T05:16:56.871Z,31.90
2017-11-03T05:19:23.566Z,37.97
2017-11-03T05:21:49.611Z,39.43
2017-11-03T05:24:15.668Z,42.80
2017-11-03T05:26:42.468Z,46.90
2017-11-03T05:29:08.498Z,41.83
2017-11-03T05:31:34.499Z,40.00
2017-11-03T05:34:04.168Z,32.37
2017-11-03T05:36:31.004Z,36.53
2017-11-03T05:38:57.973Z,43.00
2017-11-03T05:41:24.152Z,33.93
2017-11-03T05:43:50.235Z,38.80
2017-11-03T05:46:16.360Z,36.27
2017-11-03T05:48:42.463Z,37.70
2017-11-03T05:51:09.316Z,37.77
2017-11-03T05:53:35.459Z,36.63
2017-11-03T05:56:01.597Z,36.70
2017-11-03T05:58:27.675Z,33.23
2017-11-03T06:00:54.538Z,36.43
2017-11-03T06:03:20.714Z,40.53
2017-11-03T06:05:46.789Z,34.20
2017-11-03T06:08:12.902Z,34.03
2017-11-03T06:10:39.638Z,36.10
2017-11-03T06:13:05.715Z,31.63
2017-11-03T06:15:31.734Z,33.20
2017-11-03T06:17:57.801Z,40.60
2017-11-03T06:20:23.877Z,32.10
2017-11-03T06:22:49.949Z,34.37
2017-11-03T06:25:15.999Z,40.30
2017-11-03T06:27:42.102Z,32.90
2017-11-03T06:30:08.166Z,35.87
2017-11-03T06:32:34.248Z,35.13
2017-11-03T06:35:00.365Z,35.33
2017-11-03T06:37:26.454Z,37.20
2017-11-03T06:39:52.593Z,37.80
2017-11-03T06:42:18.683Z,35.57
2017-11-03T06:44:45.464Z,35.33
2017-11-03T06:47:11.545Z,32.10
2017-11-03T06:49:37.562Z,33.23
2017-11-03T06:52:03.592Z,37.80
2017-11-03T06:54:29.704Z,31.33
2017-11-03T06:56:55.759Z,34.90
2017-11-03T06:59:21.854Z,37.23
2017-11-03T07:01:47.936Z,33.67
2017-11-03T07:04:14.190Z,32.80
2017-11-03T07:06:40.240Z,36.10
2017-11-03T07:09:06.295Z,34.40
2017-11-03T07:11:33.029Z,34.70
2017-11-03T07:13:59.883Z,32.83
2017-11-03T07:16:26.707Z,36.43
2017-11-03T07:18:53.574Z,33.50
2017-11-03T07:21:19.650Z,31.97
2017-11-03T07:23:45.728Z,32.90
2017-11-03T07:26:11.784Z,31.80
2017-11-03T07:28:37.891Z,31.33
2017-11-03T07:31:03.953Z,32.30
2017-11-03T07:33:30.064Z,31.77
2017-11-03T07:35:56.085Z,31.50
2017-11-03T07:38:22.140Z,29.67
2017-11-03T07:40:48.245Z,31.67
2017-11-03T07:43:14.344Z,39.33
2017-11-03T07:45:40.451Z,35.63
2017-11-03T07:48:07.254Z,30.60
2017-11-03T07:50:33.279Z,32.23
2017-11-03T07:52:59.343Z,31.23
2017-11-03T07:55:26.098Z,29.57
2017-11-03T07:57:52.236Z,26.40
2017-11-03T08:00:18.242Z,31.10
2017-11-03T08:02:44.254Z,27.07
2017-11-03T08:05:10.345Z,29.10
2017-11-03T08:07:36.419Z,29.17
2017-11-03T08:10:02.463Z,30.77
2017-11-03T08:12:28.539Z,33.57
2017-11-03T08:14:54.573Z,28.30
2017-11-03T08:17:21.361Z,31.23
2017-11-03T08:19:48.267Z,32.67
2017-11-03T08:22:15.035Z,30.20
2017-11-03T08:24:41.060Z,29.90
2017-11-03T08:27:07.150Z,29.60
2017-11-03T08:29:33.188Z,29.20
2017-11-03T08:31:59.246Z,30.57
2017-11-03T08:34:27.053Z,27.27
2017-11-03T08:36:53.359Z,27.83
2017-11-03T08:39:19.414Z,33.27
2017-11-03T08:41:45.501Z,29.43
2017-11-03T08:44:11.572Z,30.60
2017-11-03T08:46:37.651Z,31.23
2017-11-03T08:49:03.671Z,26.27
2017-11-03T08:51:29.747Z,27.33
2017-11-03T08:53:55.777Z,26.30
2017-11-03T08:56:22.571Z,29.40
2017-11-03T08:58:48.640Z,28.53
2017-11-03T09:01:14.676Z,25.43
2017-11-03T09:03:41.459Z,31.87
2017-11-03T09:06:07.470Z,27.73
2017-11-03T09:08:33.579Z,27.23
2017-11-03T09:11:00.383Z,27.20
2017-11-03T09:13:26.458Z,25.63
2017-11-03T09:15:52.483Z,24.37
2017-11-03T09:18:18.539Z,29.97
2017-11-03T09:20:44.647Z,26.10
2017-11-03T09:23:10.755Z,31.63
2017-11-03T09:25:39.031Z,23.00
2017-11-03T09:28:05.073Z,30.23
2017-11-03T09:30:31.131Z,25.90
2017-11-03T09:32:57.212Z,28.33
2017-11-03T09:35:23.216Z,23.60
2017-11-03T09:37:50.008Z,21.80
2017-11-03T09:40:16.084Z,20.93
2017-11-03T09:42:42.909Z,28.30
2017-11-03T09:45:08.951Z,21.23
2017-11-03T09:47:35.776Z,23.23
2017-11-03T09:50:01.847Z,23.57
2017-11-03T09:52:27.965Z,21.97
2017-11-03T09:54:54.047Z,21.27
2017-11-03T09:57:20.139Z,23.10
2017-11-03T09:59:46.171Z,24.60
2017-11-03T10:02:12.238Z,23.33
2017-11-03T10:04:38.332Z,21.40
2017-11-03T10:07:04.383Z,21.73
2017-11-03T10:09:30.465Z,23.13
2017-11-03T10:11:56.538Z,20.00
2017-11-03T10:14:22.660Z,20.77
2017-11-03T10:16:48.696Z,19.60
2017-11-03T10:19:14.760Z,17.90
2017-11-03T10:21:40.856Z,18.93
2017-11-03T10:24:07.647Z,16.30
2017-11-03T10:26:33.788Z,17.50
2017-11-03T10:28:59.841Z,15.57
2017-11-03T10:31:25.887Z,16.93
2017-11-03T10:33:52.718Z,17.23
2017-11-03T10:36:18.751Z,14.70
2017-11-03T10:38:44.851Z,14.80
2017-11-03T10:41:10.866Z,7.23
2017-11-03T10:43:36.907Z,10.07
2017-11-03T10:46:02.972Z,10.40
2017-11-03T10:48:29.020Z,13.37
2017-11-03T10:50:55.063Z,8.07
2017-11-03T10:53:21.114Z,8.00
2017-11-03T10:55:47.169Z,7.93
2017-11-03T10:58:13.207Z,9.60
2017-11-03T11:00:39.304Z,8.77
2017-11-03T11:03:06.039Z,9.73
2017-11-03T11:05:32.858Z,9.43
2017-11-03T11:07:58.927Z,9.53
2017-11-03T11:10:24.990Z,10.17
2017-11-03T11:12:51.022Z,14.80
2017-11-03T11:15:17.058Z,10.90
2017-11-03T11:17:43.085Z,10.23
2017-11-03T11:20:09.152Z,9.17
2017-11-03T11:22:35.182Z,9.83
2017-11-03T11:25:01.289Z,8.97
2017-11-03T11:27:28.091Z,12.63
2017-11-03T11:29:54.170Z,13.00
2017-11-03T11:32:20.228Z,11.70
2017-11-03T11:34:46.292Z,11.90
2017-11-03T11:37:12.307Z,9.87
2017-11-03T11:39:38.335Z,10.23
2017-11-03T11:42:04.362Z,13.87
2017-11-03T11:44:30.459Z,11.10
2017-11-03T11:46:56.503Z,11.47
2017-11-03T11:49:22.682Z,11.50
2017-11-03T11:51:48.701Z,11.50
2017-11-03T11:54:14.733Z,10.10
2017-11-03T11:56:40.795Z,15.00
2017-11-03T11:59:06.851Z,9.50
2017-11-03T12:01:33.199Z,11.30
2017-11-03T12:03:59.252Z,10.00
2017-11-03T12:06:25.300Z,10.50
2017-11-03T12:08:51.407Z,12.57
2017-11-03T12:11:17.444Z,13.10
2017-11-03T12:13:43.527Z,9.90
2017-11-03T12:16:09.550Z,11.20
2017-11-03T12:18:36.708Z,10.20
2017-11-03T12:21:03.531Z,11.60
2017-11-03T12:23:30.279Z,11.53
2017-11-03T12:25:57.024Z,11.87
2017-11-03T12:28:23.100Z,10.47
2017-11-03T12:30:49.115Z,11.03
2017-11-03T12:33:15.243Z,11.40
2017-11-03T12:35:41.300Z,12.50
2017-11-03T12:38:07.384Z,10.97
2017-11-03T12:40:33.404Z,11.73
2017-11-03T12:42:59.481Z,14.50
2017-11-03T12:45:25.550Z,12.13
2017-11-03T12:47:51.596Z,11.40
2017-11-03T12:50:17.670Z,12.43
2017-11-03T12:52:43.699Z,14.07
2017-11-03T12:55:10.478Z,11.87
2017-11-03T12:57:36.535Z,12.83
2017-11-03T13:00:02.561Z,12.40
2017-11-03T13:02:28.591Z,11.33
2017-11-03T13:04:54.677Z,11.83
2017-11-03T13:07:20.744Z,12.10
2017-11-03T13:09:46.821Z,11.97
2017-11-03T13:12:12.924Z,10.97
2017-11-03T13:14:39.750Z,15.10
2017-11-03T13:17:05.830Z,13.93
2017-11-03T13:19:31.868Z,11.83
2017-11-03T13:21:57.881Z,13.23
2017-11-03T13:24:23.944Z,11.80
2017-11-03T13:26:49.998Z,14.17
2017-11-03T13:29:16.808Z,14.40
2017-11-03T13:31:42.950Z,12.50
2017-11-03T13:34:09.060Z,12.57
2017-11-03T13:36:35.144Z,11.57
2017-11-03T13:39:01.400Z,12.87
2017-11-03T13:41:27.462Z,11.90
2017-11-03T13:43:54.387Z,11.57
2017-11-03T13:46:20.464Z,15.03
2017-11-03T13:48:46.491Z,11.37
2017-11-03T13:51:12.802Z,11.23
2017-11-03T13:53:39.609Z,12.87
2017-11-03T13:56:05.645Z,10.10
2017-11-03T13:58:32.022Z,10.97
2017-11-03T14:00:58.066Z,11.40
2017-11-03T14:03:24.099Z,11.20
2017-11-03T14:05:50.179Z,12.20
2017-11-03T14:08:16.967Z,12.20
2017-11-03T14:10:43.046Z,12.70
2017-11-03T14:13:09.801Z,12.63
2017-11-03T14:18:28.739Z,13.67
2017-11-03T14:20:54.768Z,11.97
2017-11-03T14:23:21.681Z,12.70
2017-11-03T14:25:47.710Z,12.83
2017-11-03T14:28:13.771Z,14.00
2017-11-03T14:30:39.843Z,13.13
2017-11-03T14:33:05.924Z,14.83
2017-11-03T14:35:31.974Z,13.40
2017-11-03T14:37:58.095Z,13.70
2017-11-03T14:40:24.946Z,12.97
2017-11-03T14:42:51.001Z,12.83
2017-11-03T14:45:17.041Z,14.83
2017-11-03T14:47:43.108Z,14.80
2017-11-03T14:50:09.175Z,13.47
2017-11-03T14:52:35.289Z,13.57
2017-11-03T14:55:01.360Z,14.60
2017-11-03T14:57:27.465Z,14.37
2017-11-03T14:59:53.631Z,14.47
2017-11-03T15:02:19.704Z,13.90
2017-11-03T15:04:45.792Z,11.93
2017-11-03T15:07:12.631Z,14.60
2017-11-03T15:09:39.404Z,16.53
2017-11-03T15:12:05.481Z,13.33
2017-11-03T15:14:31.859Z,15.20
2017-11-03T15:16:57.962Z,12.77
2017-11-03T15:19:24.752Z,14.67
2017-11-03T15:21:50.902Z,13.03
2017-11-03T15:24:16.972Z,15.60
2017-11-03T15:26:43.005Z,15.13
2017-11-03T15:29:09.076Z,14.23
2017-11-03T15:31:36.172Z,16.70
2017-11-03T15:34:02.194Z,14.60
2017-11-03T15:36:28.341Z,14.37
2017-11-03T15:38:54.421Z,14.07
2017-11-03T15:41:20.504Z,13.20
2017-11-03T15:43:46.737Z,14.70
2017-11-03T15:46:12.852Z,16.10
2017-11-03T15:48:38.921Z,13.33
2017-11-03T15:51:05.339Z,11.87
2017-11-03T15:53:31.387Z,12.73
2017-11-03T15:55:58.613Z,14.27
2017-11-03T15:58:24.920Z,14.43
2017-11-03T16:00:51.009Z,13.50
2017-11-03T16:03:17.224Z,12.70
2017-11-03T16:05:43.308Z,12.33
2017-11-03T16:08:09.443Z,14.03
2017-11-03T16:10:35.541Z,16.10
2017-11-03T16:13:01.681Z,19.47
2017-11-03T16:15:28.608Z,16.30
2017-11-03T16:17:54.892Z,18.53
2017-11-03T16:20:20.956Z,18.80
2017-11-03T16:22:46.974Z,22.63
2017-11-03T16:25:13.152Z,19.80
2017-11-03T16:27:39.189Z,16.70
2017-11-03T16:30:05.427Z,14.57
2017-11-03T16:32:31.548Z,15.50
2017-11-03T16:34:57.740Z,18.83
2017-11-03T16:37:23.808Z,16.80
2017-11-03T16:39:49.846Z,19.40
2017-11-03T16:42:15.946Z,17.07
2017-11-03T16:44:42.094Z,17.13
2017-11-03T16:47:08.204Z,15.93
2017-11-03T16:49:34.408Z,16.93
2017-11-03T16:52:00.430Z,16.63
2017-11-03T16:54:26.554Z,15.10
2017-11-03T16:56:52.637Z,15.70
2017-11-03T16:59:18.703Z,16.43
2017-11-03T17:01:44.746Z,16.73
2017-11-03T17:04:11.463Z,18.57
2017-11-03T17:06:37.595Z,17.90
2017-11-03T17:09:03.754Z,14.67
2017-11-03T17:11:29.840Z,18.07
2017-11-03T17:13:55.910Z,20.50
2017-11-03T17:16:22.083Z,19.27
2017-11-03T17:18:48.899Z,27.00
2017-11-03T17:21:14.982Z,22.50
2017-11-03T17:23:41.181Z,17.60
2017-11-03T17:26:07.983Z,15.97
2017-11-03T17:28:34.107Z,16.93
2017-11-03T17:31:01.188Z,16.23
2017-11-03T17:33:27.300Z,17.57
2017-11-03T17:35:53.445Z,17.77
2017-11-03T17:38:20.284Z,19.40
2017-11-03T17:40:46.395Z,19.60
2017-11-03T17:43:12.410Z,23.13
2017-11-03T17:45:39.502Z,20.40
2017-11-03T17:48:06.394Z,20.23
2017-11-03T17:50:33.508Z,26.37
2017-11-03T17:52:59.838Z,20.67
2017-11-03T17:55:25.876Z,18.17
2017-11-03T17:57:51.926Z,27.67
2017-11-03T18:00:17.999Z,39.33
2017-11-03T18:02:44.057Z,33.23
2017-11-03T18:05:10.137Z,22.67
2017-11-03T18:07:36.171Z,24.40
2017-11-03T18:10:02.213Z,20.90
2017-11-03T18:12:28.313Z,22.30
2017-11-03T18:14:55.121Z,26.33
2017-11-03T18:17:21.231Z,22.80
2017-11-03T18:19:47.328Z,20.53
2017-11-03T18:22:13.488Z,20.27
2017-11-03T18:24:39.536Z,28.23
2017-11-03T18:27:05.697Z,18.20
2017-11-03T18:29:33.168Z,17.43
2017-11-03T18:31:59.621Z,18.03
2017-11-03T18:34:32.334Z,17.63
2017-11-03T18:36:58.407Z,16.80
2017-11-03T18:39:25.226Z,18.20
2017-11-03T18:41:52.269Z,17.03
2017-11-03T18:44:18.388Z,18.13
2017-11-03T18:46:45.104Z,26.77
2017-11-03T18:49:11.252Z,17.73
2017-11-03T18:51:37.806Z,18.97
2017-11-03T18:54:03.911Z,17.13
2017-11-03T18:56:30.295Z,20.90
2017-11-03T18:58:56.479Z,18.83
2017-11-03T19:01:23.188Z,16.87
2017-11-03T19:03:50.036Z,20.83
2017-11-03T19:06:16.815Z,20.90
2017-11-03T19:08:42.880Z,19.00
2017-11-03T19:11:09.484Z,17.47
2017-11-03T19:13:36.588Z,20.37
2017-11-03T19:16:03.559Z,19.53
2017-11-03T19:18:30.543Z,23.80
2017-11-03T19:20:56.900Z,22.80
2017-11-03T19:23:23.111Z,27.40
2017-11-03T19:25:49.327Z,26.63
2017-11-03T19:28:16.681Z,23.33
2017-11-03T19:30:43.035Z,27.80
2017-11-03T19:33:09.533Z,25.03
2017-11-03T19:35:40.468Z,28.60
2017-11-03T19:38:15.464Z,25.70
2017-11-03T19:40:43.927Z,27.30
2017-11-03T19:43:42.145Z,27.40
2017-11-03T19:46:08.776Z,27.60
2017-11-03T19:48:35.052Z,25.87
2017-11-03T19:51:01.169Z,23.00
2017-11-03T19:53:27.946Z,24.40
2017-11-03T19:55:54.327Z,21.43
2017-11-03T19:58:21.217Z,22.17
2017-11-03T20:00:47.499Z,22.37
2017-11-03T20:03:23.589Z,23.30
2017-11-03T20:05:49.776Z,22.40
2017-11-03T20:08:15.967Z,21.17
2017-11-03T20:10:42.075Z,23.93
2017-11-03T20:13:08.186Z,24.30
2017-11-03T20:15:34.386Z,29.60
2017-11-03T20:18:00.545Z,22.13
2017-11-03T20:20:26.695Z,28.23
2017-11-03T20:22:54.044Z,24.53
2017-11-03T20:25:20.195Z,20.67
2017-11-03T20:27:46.310Z,19.47
2017-11-03T20:30:13.227Z,21.30
2017-11-03T20:32:39.359Z,25.07
2017-11-03T20:35:05.504Z,20.43
2017-11-03T20:37:31.598Z,23.60
2017-11-03T20:39:57.787Z,22.33
2017-11-03T20:42:23.903Z,20.43
2017-11-03T20:44:51.196Z,22.07
2017-11-03T20:47:17.932Z,22.70
2017-11-03T20:49:44.084Z,22.33
2017-11-03T20:52:10.222Z,22.30
2017-11-03T20:54:36.334Z,24.20
2017-11-03T20:57:02.465Z,20.77
2017-11-03T20:59:28.547Z,20.40
2017-11-03T21:01:54.630Z,19.63
2017-11-03T21:04:20.902Z,26.67
2017-11-03T21:06:46.980Z,22.20
2017-11-03T21:09:13.054Z,30.23
2017-11-03T21:11:39.089Z,21.80
2017-11-03T21:14:05.119Z,22.63
2017-11-03T21:16:31.176Z,21.47
2017-11-03T21:18:57.291Z,22.60
2017-11-03T21:21:23.409Z,17.57
2017-11-03T21:23:49.572Z,21.47
2017-11-03T21:26:15.698Z,20.30
2017-11-03T21:28:41.774Z,18.97
2017-11-03T21:31:07.842Z,20.77
2017-11-03T21:33:33.962Z,25.07
2017-11-03T21:36:00.023Z,21.40
2017-11-03T21:38:26.830Z,24.30
2017-11-03T21:40:52.887Z,25.53
2017-11-03T21:43:19.639Z,21.70
2017-11-03T21:45:45.783Z,22.03
2017-11-03T21:48:11.839Z,23.50
2017-11-03T21:50:37.896Z,22.50
2017-11-03T21:53:03.997Z,27.20
2017-11-03T21:55:30.035Z,23.27
2017-11-03T21:57:56.140Z,27.00
2017-11-03T22:00:22.232Z,27.53
2017-11-03T22:02:48.401Z,23.83
2017-11-03T22:05:14.442Z,22.10
2017-11-03T22:07:40.656Z,23.87
2017-11-03T22:10:06.750Z,22.07
2017-11-03T22:12:32.872Z,19.93
2017-11-03T22:14:59.009Z,23.47
2017-11-03T22:17:25.090Z,21.50
2017-11-03T22:19:51.975Z,22.90
2017-11-03T22:22:18.072Z,22.17
2017-11-03T22:24:44.256Z,21.13
2017-11-03T22:27:10.351Z,20.10
2017-11-03T22:29:36.454Z,18.63
2017-11-03T22:32:02.557Z,22.03
2017-11-03T22:34:28.647Z,22.67
2017-11-03T22:36:54.670Z,19.77
2017-11-03T22:39:20.777Z,25.33
2017-11-03T22:41:46.823Z,20.60
2017-11-03T22:44:12.985Z,24.00
2017-11-03T22:46:39.105Z,26.10
2017-11-03T22:49:05.236Z,24.47
2017-11-03T22:51:31.288Z,25.37
2017-11-03T22:53:58.086Z,27.17
2017-11-03T22:56:24.100Z,28.40
2017-11-03T22:58:50.135Z,25.87
2017-11-03T23:01:16.259Z,25.60
2017-11-03T23:03:42.295Z,31.50
2017-11-03T23:06:08.335Z,36.47
2017-11-03T23:08:34.458Z,27.20
2017-11-03T23:11:00.484Z,30.63
2017-11-03T23:13:26.508Z,30.50
2017-11-03T23:15:52.604Z,27.63
2017-11-03T23:18:18.678Z,29.80
2017-11-03T23:20:45.494Z,23.90
2017-11-03T23:23:12.569Z,26.53
2017-11-03T23:25:39.388Z,25.77
2017-11-03T23:28:05.423Z,25.83
2017-11-03T23:30:31.513Z,26.70
2017-11-03T23:32:57.589Z,24.70
2017-11-03T23:35:23.631Z,26.27
2017-11-03T23:37:49.640Z,23.27
2017-11-03T23:40:15.691Z,24.03
2017-11-03T23:42:41.712Z,22.47
2017-11-03T23:45:07.771Z,27.93
2017-11-03T23:47:33.803Z,25.00
2017-11-03T23:49:59.883Z,25.97
2017-11-03T23:52:25.902Z,24.80
2017-11-03T23:54:51.911Z,26.90
2017-11-03T23:57:18.703Z,24.77
2017-11-03T23:59:44.727Z,24.27
